sensor_id;sensor_type;location;lat;lon;timestamp;P1;durP1;ratioP1;P2;durP2;ratioP2
59504;SDS011;45321;53.200;5.814;2022-08-16T00:01:10;19.63;;;17.48;;
59504;SDS011;45321;53.200;5.814;2022-08-16T00:03:36;20.23;;;17.90;;
59504;SDS011;45321;53.200;5.814;2022-08-16T00:06:02;20.25;;;18.15;;
59504;SDS011;45321;53.200;5.814;2022-08-16T00:08:28;19.75;;;17.65;;
59504;SDS011;45321;53.200;5.814;2022-08-16T00:10:54;20.15;;;17.67;;
59504;SDS011;45321;53.200;5.814;2022-08-16T00:13:19;19.80;;;17.70;;
59504;SDS011;45321;53.200;5.814;2022-08-16T00:15:46;20.10;;;17.77;;
59504;SDS011;45321;53.200;5.814;2022-08-16T00:18:13;21.25;;;16.63;;
59504;SDS011;45321;53.200;5.814;2022-08-16T00:20:42;18.13;;;16.25;;
59504;SDS011;45321;53.200;5.814;2022-08-16T00:23:10;19.92;;;15.85;;
59504;SDS011;45321;53.200;5.814;2022-08-16T00:25:37;18.58;;;15.80;;
59504;SDS011;45321;53.200;5.814;2022-08-16T00:28:04;18.05;;;16.30;;
59504;SDS011;45321;53.200;5.814;2022-08-16T00:30:30;17.40;;;15.27;;
59504;SDS011;45321;53.200;5.814;2022-08-16T00:32:57;17.10;;;15.45;;
59504;SDS011;45321;53.200;5.814;2022-08-16T00:35:25;18.52;;;16.52;;
59504;SDS011;45321;53.200;5.814;2022-08-16T00:37:54;19.85;;;15.60;;
59504;SDS011;45321;53.200;5.814;2022-08-16T00:40:24;17.25;;;15.48;;
59504;SDS011;45321;53.200;5.814;2022-08-16T00:43:02;18.15;;;16.35;;
59504;SDS011;45321;53.200;5.814;2022-08-16T00:48:28;17.98;;;15.95;;
59504;SDS011;45321;53.200;5.814;2022-08-16T00:50:55;18.90;;;16.83;;
59504;SDS011;45321;53.200;5.814;2022-08-16T00:53:20;22.48;;;15.80;;
59504;SDS011;45321;53.200;5.814;2022-08-16T00:55:51;17.67;;;15.88;;
59504;SDS011;45321;53.200;5.814;2022-08-16T00:58:19;21.73;;;17.55;;
59504;SDS011;45321;53.200;5.814;2022-08-16T01:00:47;21.27;;;16.08;;
59504;SDS011;45321;53.200;5.814;2022-08-16T01:03:15;18.15;;;16.27;;
59504;SDS011;45321;53.200;5.814;2022-08-16T01:05:42;19.77;;;17.55;;
59504;SDS011;45321;53.200;5.814;2022-08-16T01:08:09;18.83;;;16.02;;
59504;SDS011;45321;53.200;5.814;2022-08-16T01:10:37;20.55;;;17.23;;
59504;SDS011;45321;53.200;5.814;2022-08-16T01:13:13;17.65;;;15.93;;
59504;SDS011;45321;53.200;5.814;2022-08-16T01:16:03;18.65;;;16.63;;
59504;SDS011;45321;53.200;5.814;2022-08-16T01:18:32;18.67;;;16.70;;
59504;SDS011;45321;53.200;5.814;2022-08-16T01:24:02;20.50;;;18.35;;
59504;SDS011;45321;53.200;5.814;2022-08-16T01:26:36;21.38;;;19.08;;
59504;SDS011;45321;53.200;5.814;2022-08-16T01:29:07;20.80;;;17.40;;
59504;SDS011;45321;53.200;5.814;2022-08-16T01:31:35;20.15;;;18.30;;
59504;SDS011;45321;53.200;5.814;2022-08-16T01:34:02;19.17;;;17.10;;
59504;SDS011;45321;53.200;5.814;2022-08-16T01:36:28;20.60;;;18.42;;
59504;SDS011;45321;53.200;5.814;2022-08-16T01:38:54;21.38;;;18.88;;
59504;SDS011;45321;53.200;5.814;2022-08-16T01:41:25;19.95;;;17.95;;
59504;SDS011;45321;53.200;5.814;2022-08-16T01:43:56;20.73;;;18.58;;
59504;SDS011;45321;53.200;5.814;2022-08-16T01:48:48;21.08;;;18.80;;
59504;SDS011;45321;53.200;5.814;2022-08-16T01:51:18;22.42;;;20.02;;
59504;SDS011;45321;53.200;5.814;2022-08-16T01:53:45;21.55;;;19.27;;
59504;SDS011;45321;53.200;5.814;2022-08-16T01:56:11;22.80;;;20.30;;
59504;SDS011;45321;53.200;5.814;2022-08-16T01:58:37;20.85;;;18.73;;
59504;SDS011;45321;53.200;5.814;2022-08-16T02:01:03;21.88;;;19.67;;
59504;SDS011;45321;53.200;5.814;2022-08-16T02:03:31;23.00;;;20.55;;
59504;SDS011;45321;53.200;5.814;2022-08-16T02:05:57;23.23;;;20.88;;
59504;SDS011;45321;53.200;5.814;2022-08-16T02:08:23;21.90;;;19.95;;
59504;SDS011;45321;53.200;5.814;2022-08-16T02:10:50;23.10;;;20.63;;
59504;SDS011;45321;53.200;5.814;2022-08-16T02:13:18;22.48;;;20.25;;
59504;SDS011;45321;53.200;5.814;2022-08-16T02:15:44;23.00;;;20.50;;
59504;SDS011;45321;53.200;5.814;2022-08-16T02:18:10;22.70;;;20.25;;
59504;SDS011;45321;53.200;5.814;2022-08-16T02:20:37;22.15;;;20.05;;
59504;SDS011;45321;53.200;5.814;2022-08-16T02:23:04;23.45;;;20.92;;
59504;SDS011;45321;53.200;5.814;2022-08-16T02:25:31;22.45;;;20.35;;
59504;SDS011;45321;53.200;5.814;2022-08-16T02:27:58;22.70;;;20.50;;
59504;SDS011;45321;53.200;5.814;2022-08-16T02:30:27;23.58;;;21.02;;
59504;SDS011;45321;53.200;5.814;2022-08-16T02:32:54;23.23;;;20.35;;
59504;SDS011;45321;53.200;5.814;2022-08-16T02:35:22;22.65;;;20.35;;
59504;SDS011;45321;53.200;5.814;2022-08-16T02:37:49;22.67;;;20.52;;
59504;SDS011;45321;53.200;5.814;2022-08-16T02:40:16;23.15;;;20.85;;
59504;SDS011;45321;53.200;5.814;2022-08-16T02:42:43;23.55;;;21.27;;
59504;SDS011;45321;53.200;5.814;2022-08-16T02:45:10;23.60;;;21.38;;
59504;SDS011;45321;53.200;5.814;2022-08-16T02:47:37;23.60;;;21.25;;
59504;SDS011;45321;53.200;5.814;2022-08-16T02:50:03;24.30;;;21.67;;
59504;SDS011;45321;53.200;5.814;2022-08-16T02:52:30;22.92;;;20.70;;
59504;SDS011;45321;53.200;5.814;2022-08-16T02:54:56;24.52;;;21.98;;
59504;SDS011;45321;53.200;5.814;2022-08-16T02:57:22;23.60;;;21.20;;
59504;SDS011;45321;53.200;5.814;2022-08-16T02:59:48;23.58;;;21.30;;
59504;SDS011;45321;53.200;5.814;2022-08-16T03:02:14;24.20;;;21.90;;
59504;SDS011;45321;53.200;5.814;2022-08-16T03:04:41;23.55;;;20.95;;
59504;SDS011;45321;53.200;5.814;2022-08-16T03:07:07;24.67;;;22.17;;
59504;SDS011;45321;53.200;5.814;2022-08-16T03:09:34;24.65;;;22.10;;
59504;SDS011;45321;53.200;5.814;2022-08-16T03:12:00;24.27;;;21.92;;
59504;SDS011;45321;53.200;5.814;2022-08-16T03:14:27;24.65;;;22.27;;
59504;SDS011;45321;53.200;5.814;2022-08-16T03:16:53;25.73;;;23.10;;
59504;SDS011;45321;53.200;5.814;2022-08-16T03:19:20;26.70;;;22.40;;
59504;SDS011;45321;53.200;5.814;2022-08-16T03:21:46;25.98;;;23.38;;
59504;SDS011;45321;53.200;5.814;2022-08-16T03:24:11;26.73;;;22.30;;
59504;SDS011;45321;53.200;5.814;2022-08-16T03:26:37;25.50;;;22.38;;
59504;SDS011;45321;53.200;5.814;2022-08-16T03:29:03;26.38;;;23.67;;
59504;SDS011;45321;53.200;5.814;2022-08-16T03:31:29;26.95;;;22.75;;
59504;SDS011;45321;53.200;5.814;2022-08-16T03:33:55;26.50;;;23.83;;
59504;SDS011;45321;53.200;5.814;2022-08-16T03:36:21;27.15;;;24.48;;
59504;SDS011;45321;53.200;5.814;2022-08-16T03:38:47;27.13;;;24.42;;
59504;SDS011;45321;53.200;5.814;2022-08-16T03:41:13;28.92;;;24.45;;
59504;SDS011;45321;53.200;5.814;2022-08-16T03:43:39;29.45;;;26.35;;
59504;SDS011;45321;53.200;5.814;2022-08-16T03:46:05;27.73;;;24.67;;
59504;SDS011;45321;53.200;5.814;2022-08-16T03:48:32;28.10;;;25.30;;
59504;SDS011;45321;53.200;5.814;2022-08-16T03:51:02;27.52;;;24.95;;
59504;SDS011;45321;53.200;5.814;2022-08-16T03:53:30;28.23;;;25.48;;
59504;SDS011;45321;53.200;5.814;2022-08-16T03:55:56;28.35;;;25.00;;
59504;SDS011;45321;53.200;5.814;2022-08-16T03:58:22;29.40;;;26.63;;
59504;SDS011;45321;53.200;5.814;2022-08-16T04:00:47;29.38;;;26.48;;
59504;SDS011;45321;53.200;5.814;2022-08-16T04:03:13;28.73;;;25.95;;
59504;SDS011;45321;53.200;5.814;2022-08-16T04:05:41;28.80;;;25.83;;
59504;SDS011;45321;53.200;5.814;2022-08-16T04:08:08;31.08;;;26.23;;
59504;SDS011;45321;53.200;5.814;2022-08-16T04:10:34;30.52;;;25.38;;
59504;SDS011;45321;53.200;5.814;2022-08-16T04:13:00;28.83;;;25.77;;
59504;SDS011;45321;53.200;5.814;2022-08-16T04:15:25;28.90;;;25.90;;
59504;SDS011;45321;53.200;5.814;2022-08-16T04:17:53;30.05;;;26.80;;
59504;SDS011;45321;53.200;5.814;2022-08-16T04:20:20;29.95;;;26.85;;
59504;SDS011;45321;53.200;5.814;2022-08-16T04:22:46;30.38;;;27.15;;
59504;SDS011;45321;53.200;5.814;2022-08-16T04:25:12;28.92;;;26.02;;
59504;SDS011;45321;53.200;5.814;2022-08-16T04:27:38;29.80;;;27.08;;
59504;SDS011;45321;53.200;5.814;2022-08-16T04:30:09;29.85;;;26.85;;
59504;SDS011;45321;53.200;5.814;2022-08-16T04:32:37;28.85;;;26.00;;
59504;SDS011;45321;53.200;5.814;2022-08-16T04:35:05;28.65;;;25.73;;
59504;SDS011;45321;53.200;5.814;2022-08-16T04:37:32;29.33;;;26.48;;
59504;SDS011;45321;53.200;5.814;2022-08-16T04:39:58;30.15;;;26.98;;
59504;SDS011;45321;53.200;5.814;2022-08-16T04:42:24;29.40;;;26.30;;
59504;SDS011;45321;53.200;5.814;2022-08-16T04:44:51;30.33;;;27.25;;
59504;SDS011;45321;53.200;5.814;2022-08-16T04:47:17;28.75;;;26.02;;
59504;SDS011;45321;53.200;5.814;2022-08-16T04:49:43;29.63;;;26.60;;
59504;SDS011;45321;53.200;5.814;2022-08-16T04:52:08;30.27;;;27.17;;
59504;SDS011;45321;53.200;5.814;2022-08-16T04:54:34;29.85;;;27.08;;
59504;SDS011;45321;53.200;5.814;2022-08-16T04:57:00;30.52;;;27.38;;
59504;SDS011;45321;53.200;5.814;2022-08-16T04:59:26;28.20;;;25.40;;
59504;SDS011;45321;53.200;5.814;2022-08-16T05:01:51;30.38;;;26.75;;
59504;SDS011;45321;53.200;5.814;2022-08-16T05:04:21;29.95;;;26.77;;
59504;SDS011;45321;53.200;5.814;2022-08-16T05:06:48;29.67;;;26.85;;
59504;SDS011;45321;53.200;5.814;2022-08-16T05:09:14;31.33;;;27.45;;
59504;SDS011;45321;53.200;5.814;2022-08-16T05:11:40;28.38;;;25.60;;
59504;SDS011;45321;53.200;5.814;2022-08-16T05:14:05;30.92;;;27.85;;
59504;SDS011;45321;53.200;5.814;2022-08-16T05:16:31;29.23;;;26.42;;
59504;SDS011;45321;53.200;5.814;2022-08-16T05:18:57;30.33;;;27.35;;
59504;SDS011;45321;53.200;5.814;2022-08-16T05:21:25;28.27;;;25.35;;
59504;SDS011;45321;53.200;5.814;2022-08-16T05:23:52;31.70;;;28.50;;
59504;SDS011;45321;53.200;5.814;2022-08-16T05:26:19;31.25;;;28.23;;
59504;SDS011;45321;53.200;5.814;2022-08-16T05:28:45;30.50;;;27.17;;
59504;SDS011;45321;53.200;5.814;2022-08-16T05:31:13;31.02;;;27.70;;
59504;SDS011;45321;53.200;5.814;2022-08-16T05:33:40;31.60;;;28.33;;
59504;SDS011;45321;53.200;5.814;2022-08-16T05:36:06;32.47;;;28.52;;
59504;SDS011;45321;53.200;5.814;2022-08-16T05:38:33;29.02;;;26.13;;
59504;SDS011;45321;53.200;5.814;2022-08-16T05:40:59;30.48;;;27.40;;
59504;SDS011;45321;53.200;5.814;2022-08-16T05:43:26;29.90;;;26.88;;
59504;SDS011;45321;53.200;5.814;2022-08-16T05:45:52;28.65;;;25.63;;
59504;SDS011;45321;53.200;5.814;2022-08-16T05:48:19;29.35;;;26.55;;
59504;SDS011;45321;53.200;5.814;2022-08-16T05:50:45;30.13;;;26.92;;
59504;SDS011;45321;53.200;5.814;2022-08-16T05:53:11;29.52;;;26.45;;
59504;SDS011;45321;53.200;5.814;2022-08-16T05:55:37;29.27;;;26.52;;
59504;SDS011;45321;53.200;5.814;2022-08-16T05:58:03;27.08;;;24.40;;
59504;SDS011;45321;53.200;5.814;2022-08-16T06:00:29;29.25;;;26.17;;
59504;SDS011;45321;53.200;5.814;2022-08-16T06:02:55;27.83;;;25.15;;
59504;SDS011;45321;53.200;5.814;2022-08-16T06:05:22;28.98;;;26.10;;
59504;SDS011;45321;53.200;5.814;2022-08-16T06:07:48;29.52;;;26.73;;
59504;SDS011;45321;53.200;5.814;2022-08-16T06:10:14;29.23;;;25.00;;
59504;SDS011;45321;53.200;5.814;2022-08-16T06:12:40;28.20;;;25.30;;
59504;SDS011;45321;53.200;5.814;2022-08-16T06:15:08;29.45;;;26.42;;
59504;SDS011;45321;53.200;5.814;2022-08-16T06:17:36;28.48;;;25.75;;
59504;SDS011;45321;53.200;5.814;2022-08-16T06:20:03;27.73;;;25.15;;
59504;SDS011;45321;53.200;5.814;2022-08-16T06:22:29;29.75;;;26.33;;
59504;SDS011;45321;53.200;5.814;2022-08-16T06:24:55;30.50;;;27.20;;
59504;SDS011;45321;53.200;5.814;2022-08-16T06:27:21;30.55;;;27.73;;
59504;SDS011;45321;53.200;5.814;2022-08-16T06:29:46;29.88;;;26.95;;
59504;SDS011;45321;53.200;5.814;2022-08-16T06:32:12;30.67;;;27.42;;
59504;SDS011;45321;53.200;5.814;2022-08-16T06:34:38;28.50;;;25.50;;
59504;SDS011;45321;53.200;5.814;2022-08-16T06:37:04;30.33;;;27.33;;
59504;SDS011;45321;53.200;5.814;2022-08-16T06:39:29;30.33;;;26.77;;
59504;SDS011;45321;53.200;5.814;2022-08-16T06:41:56;29.25;;;26.27;;
59504;SDS011;45321;53.200;5.814;2022-08-16T06:44:22;31.08;;;27.88;;
59504;SDS011;45321;53.200;5.814;2022-08-16T06:46:48;33.78;;;29.85;;
59504;SDS011;45321;53.200;5.814;2022-08-16T06:49:13;31.88;;;28.50;;
59504;SDS011;45321;53.200;5.814;2022-08-16T06:51:39;34.42;;;28.88;;
59504;SDS011;45321;53.200;5.814;2022-08-16T06:54:06;36.97;;;33.10;;
59504;SDS011;45321;53.200;5.814;2022-08-16T06:56:32;35.00;;;30.50;;
59504;SDS011;45321;53.200;5.814;2022-08-16T06:58:59;34.30;;;30.58;;
59504;SDS011;45321;53.200;5.814;2022-08-16T07:01:24;33.40;;;29.88;;
59504;SDS011;45321;53.200;5.814;2022-08-16T07:03:51;36.80;;;30.52;;
59504;SDS011;45321;53.200;5.814;2022-08-16T07:06:17;38.15;;;30.00;;
59504;SDS011;45321;53.200;5.814;2022-08-16T07:08:44;35.83;;;29.65;;
59504;SDS011;45321;53.200;5.814;2022-08-16T07:11:13;36.38;;;30.48;;
59504;SDS011;45321;53.200;5.814;2022-08-16T07:13:40;34.85;;;29.60;;
59504;SDS011;45321;53.200;5.814;2022-08-16T07:16:07;29.48;;;26.15;;
59504;SDS011;45321;53.200;5.814;2022-08-16T07:18:39;32.15;;;28.70;;
59504;SDS011;45321;53.200;5.814;2022-08-16T07:21:09;31.77;;;28.23;;
59504;SDS011;45321;53.200;5.814;2022-08-16T07:23:37;32.80;;;29.27;;
59504;SDS011;45321;53.200;5.814;2022-08-16T07:26:03;32.88;;;28.88;;
59504;SDS011;45321;53.200;5.814;2022-08-16T07:28:31;34.05;;;28.67;;
59504;SDS011;45321;53.200;5.814;2022-08-16T07:30:57;30.10;;;26.85;;
59504;SDS011;45321;53.200;5.814;2022-08-16T07:33:26;34.83;;;28.20;;
59504;SDS011;45321;53.200;5.814;2022-08-16T07:35:51;32.80;;;27.80;;
59504;SDS011;45321;53.200;5.814;2022-08-16T07:38:17;32.83;;;28.50;;
59504;SDS011;45321;53.200;5.814;2022-08-16T07:40:43;36.50;;;27.17;;
59504;SDS011;45321;53.200;5.814;2022-08-16T07:43:08;31.05;;;27.70;;
59504;SDS011;45321;53.200;5.814;2022-08-16T07:45:34;34.17;;;28.35;;
59504;SDS011;45321;53.200;5.814;2022-08-16T07:48:00;30.48;;;26.88;;
59504;SDS011;45321;53.200;5.814;2022-08-16T07:50:26;33.17;;;29.67;;
59504;SDS011;45321;53.200;5.814;2022-08-16T07:52:52;30.25;;;26.98;;
59504;SDS011;45321;53.200;5.814;2022-08-16T07:55:17;34.13;;;27.20;;
59504;SDS011;45321;53.200;5.814;2022-08-16T07:57:43;29.85;;;26.45;;
59504;SDS011;45321;53.200;5.814;2022-08-16T08:00:09;29.50;;;26.52;;
59504;SDS011;45321;53.200;5.814;2022-08-16T08:02:37;33.83;;;27.17;;
59504;SDS011;45321;53.200;5.814;2022-08-16T08:05:03;32.10;;;25.80;;
59504;SDS011;45321;53.200;5.814;2022-08-16T08:07:29;29.15;;;22.95;;
59504;SDS011;45321;53.200;5.814;2022-08-16T08:09:56;28.20;;;21.65;;
59504;SDS011;45321;53.200;5.814;2022-08-16T08:12:22;28.95;;;24.30;;
59504;SDS011;45321;53.200;5.814;2022-08-16T08:14:48;28.58;;;25.13;;
59504;SDS011;45321;53.200;5.814;2022-08-16T08:17:15;32.47;;;25.55;;
59504;SDS011;45321;53.200;5.814;2022-08-16T08:19:41;28.83;;;25.70;;
59504;SDS011;45321;53.200;5.814;2022-08-16T08:22:07;33.95;;;26.17;;
59504;SDS011;45321;53.200;5.814;2022-08-16T08:24:34;26.90;;;24.10;;
59504;SDS011;45321;53.200;5.814;2022-08-16T08:27:03;30.00;;;23.75;;
59504;SDS011;45321;53.200;5.814;2022-08-16T08:29:31;27.98;;;24.77;;
59504;SDS011;45321;53.200;5.814;2022-08-16T08:31:57;28.23;;;24.13;;
59504;SDS011;45321;53.200;5.814;2022-08-16T08:34:25;24.85;;;21.98;;
59504;SDS011;45321;53.200;5.814;2022-08-16T08:36:51;24.20;;;21.55;;
59504;SDS011;45321;53.200;5.814;2022-08-16T08:39:17;29.65;;;20.85;;
59504;SDS011;45321;53.200;5.814;2022-08-16T08:41:46;24.23;;;20.90;;
59504;SDS011;45321;53.200;5.814;2022-08-16T08:44:12;26.85;;;21.58;;
59504;SDS011;45321;53.200;5.814;2022-08-16T08:46:38;27.92;;;22.73;;
59504;SDS011;45321;53.200;5.814;2022-08-16T08:49:04;24.30;;;20.02;;
59504;SDS011;45321;53.200;5.814;2022-08-16T08:51:33;25.33;;;21.10;;
59504;SDS011;45321;53.200;5.814;2022-08-16T08:53:59;27.70;;;21.85;;
59504;SDS011;45321;53.200;5.814;2022-08-16T08:56:25;24.92;;;21.48;;
59504;SDS011;45321;53.200;5.814;2022-08-16T08:58:54;28.08;;;22.17;;
59504;SDS011;45321;53.200;5.814;2022-08-16T09:01:25;25.15;;;22.33;;
59504;SDS011;45321;53.200;5.814;2022-08-16T09:03:57;28.23;;;22.52;;
59504;SDS011;45321;53.200;5.814;2022-08-16T09:06:24;27.23;;;21.35;;
59504;SDS011;45321;53.200;5.814;2022-08-16T09:08:50;26.35;;;23.30;;
59504;SDS011;45321;53.200;5.814;2022-08-16T09:11:16;24.48;;;21.58;;
59504;SDS011;45321;53.200;5.814;2022-08-16T09:13:42;28.25;;;19.55;;
59504;SDS011;45321;53.200;5.814;2022-08-16T09:16:08;24.20;;;21.42;;
59504;SDS011;45321;53.200;5.814;2022-08-16T09:18:34;23.55;;;20.05;;
59504;SDS011;45321;53.200;5.814;2022-08-16T09:21:00;19.90;;;17.42;;
59504;SDS011;45321;53.200;5.814;2022-08-16T09:23:27;19.15;;;15.80;;
59504;SDS011;45321;53.200;5.814;2022-08-16T09:25:55;21.30;;;18.52;;
59504;SDS011;45321;53.200;5.814;2022-08-16T09:28:21;24.52;;;19.38;;
59504;SDS011;45321;53.200;5.814;2022-08-16T09:30:47;23.85;;;21.02;;
59504;SDS011;45321;53.200;5.814;2022-08-16T09:33:14;22.23;;;19.20;;
59504;SDS011;45321;53.200;5.814;2022-08-16T09:36:06;21.63;;;19.35;;
59504;SDS011;45321;53.200;5.814;2022-08-16T09:39:01;26.08;;;19.92;;
59504;SDS011;45321;53.200;5.814;2022-08-16T09:41:28;26.25;;;20.95;;
59504;SDS011;45321;53.200;5.814;2022-08-16T09:44:26;18.83;;;16.48;;
59504;SDS011;45321;53.200;5.814;2022-08-16T09:46:53;24.98;;;20.67;;
59504;SDS011;45321;53.200;5.814;2022-08-16T09:49:20;20.38;;;17.88;;
59504;SDS011;45321;53.200;5.814;2022-08-16T09:51:49;23.80;;;19.80;;
59504;SDS011;45321;53.200;5.814;2022-08-16T09:54:34;24.45;;;21.58;;
59504;SDS011;45321;53.200;5.814;2022-08-16T09:57:00;27.63;;;18.88;;
59504;SDS011;45321;53.200;5.814;2022-08-16T09:59:26;22.98;;;18.92;;
59504;SDS011;45321;53.200;5.814;2022-08-16T10:01:52;24.55;;;17.27;;
59504;SDS011;45321;53.200;5.814;2022-08-16T10:04:18;24.25;;;18.20;;
59504;SDS011;45321;53.200;5.814;2022-08-16T10:06:44;24.55;;;20.48;;
59504;SDS011;45321;53.200;5.814;2022-08-16T10:09:11;21.23;;;18.95;;
59504;SDS011;45321;53.200;5.814;2022-08-16T10:11:39;22.25;;;18.75;;
59504;SDS011;45321;53.200;5.814;2022-08-16T10:14:25;20.73;;;18.60;;
59504;SDS011;45321;53.200;5.814;2022-08-16T10:16:54;24.85;;;20.45;;
59504;SDS011;45321;53.200;5.814;2022-08-16T10:19:22;24.92;;;19.35;;
59504;SDS011;45321;53.200;5.814;2022-08-16T10:21:48;21.35;;;18.40;;
59504;SDS011;45321;53.200;5.814;2022-08-16T10:24:14;19.25;;;15.35;;
59504;SDS011;45321;53.200;5.814;2022-08-16T10:26:40;20.98;;;17.02;;
59504;SDS011;45321;53.200;5.814;2022-08-16T10:29:06;19.25;;;16.00;;
59504;SDS011;45321;53.200;5.814;2022-08-16T10:31:32;21.25;;;16.15;;
59504;SDS011;45321;53.200;5.814;2022-08-16T10:33:58;19.17;;;13.98;;
59504;SDS011;45321;53.200;5.814;2022-08-16T10:36:25;20.98;;;14.77;;
59504;SDS011;45321;53.200;5.814;2022-08-16T10:38:52;17.75;;;14.88;;
59504;SDS011;45321;53.200;5.814;2022-08-16T10:41:17;16.25;;;13.13;;
59504;SDS011;45321;53.200;5.814;2022-08-16T10:43:43;18.77;;;15.20;;
59504;SDS011;45321;53.200;5.814;2022-08-16T10:46:10;20.95;;;14.65;;
59504;SDS011;45321;53.200;5.814;2022-08-16T10:48:38;17.88;;;12.95;;
59504;SDS011;45321;53.200;5.814;2022-08-16T10:51:05;18.10;;;13.20;;
59504;SDS011;45321;53.200;5.814;2022-08-16T10:53:32;12.82;;;11.10;;
59504;SDS011;45321;53.200;5.814;2022-08-16T10:55:58;16.63;;;13.93;;
59504;SDS011;45321;53.200;5.814;2022-08-16T10:58:25;14.20;;;10.98;;
59504;SDS011;45321;53.200;5.814;2022-08-16T11:00:50;16.65;;;12.65;;
59504;SDS011;45321;53.200;5.814;2022-08-16T11:03:17;15.02;;;11.48;;
59504;SDS011;45321;53.200;5.814;2022-08-16T11:05:44;13.43;;;8.32;;
59504;SDS011;45321;53.200;5.814;2022-08-16T11:08:10;17.70;;;11.82;;
59504;SDS011;45321;53.200;5.814;2022-08-16T11:10:38;18.20;;;10.80;;
59504;SDS011;45321;53.200;5.814;2022-08-16T11:13:06;21.88;;;11.65;;
59504;SDS011;45321;53.200;5.814;2022-08-16T11:15:34;17.10;;;13.50;;
59504;SDS011;45321;53.200;5.814;2022-08-16T11:18:01;13.30;;;10.38;;
59504;SDS011;45321;53.200;5.814;2022-08-16T11:20:28;16.83;;;12.93;;
59504;SDS011;45321;53.200;5.814;2022-08-16T11:22:54;19.63;;;11.40;;
59504;SDS011;45321;53.200;5.814;2022-08-16T11:25:23;15.65;;;11.80;;
59504;SDS011;45321;53.200;5.814;2022-08-16T11:27:50;15.60;;;9.93;;
59504;SDS011;45321;53.200;5.814;2022-08-16T11:30:18;17.92;;;12.35;;
59504;SDS011;45321;53.200;5.814;2022-08-16T11:32:45;15.95;;;9.50;;
59504;SDS011;45321;53.200;5.814;2022-08-16T11:35:18;17.17;;;11.15;;
59504;SDS011;45321;53.200;5.814;2022-08-16T11:37:46;12.13;;;9.13;;
59504;SDS011;45321;53.200;5.814;2022-08-16T11:40:14;16.10;;;8.32;;
59504;SDS011;45321;53.200;5.814;2022-08-16T11:42:40;10.43;;;8.20;;
59504;SDS011;45321;53.200;5.814;2022-08-16T11:45:06;14.90;;;9.73;;
59504;SDS011;45321;53.200;5.814;2022-08-16T11:47:33;13.75;;;8.65;;
59504;SDS011;45321;53.200;5.814;2022-08-16T11:49:58;12.93;;;7.85;;
59504;SDS011;45321;53.200;5.814;2022-08-16T11:52:27;12.70;;;9.38;;
59504;SDS011;45321;53.200;5.814;2022-08-16T11:54:53;13.02;;;7.85;;
59504;SDS011;45321;53.200;5.814;2022-08-16T11:57:21;14.98;;;8.32;;
59504;SDS011;45321;53.200;5.814;2022-08-16T11:59:56;14.65;;;8.60;;
59504;SDS011;45321;53.200;5.814;2022-08-16T12:02:21;12.15;;;8.48;;
59504;SDS011;45321;53.200;5.814;2022-08-16T12:04:47;10.05;;;9.05;;
59504;SDS011;45321;53.200;5.814;2022-08-16T12:07:13;8.07;;;7.13;;
59504;SDS011;45321;53.200;5.814;2022-08-16T12:09:39;9.02;;;7.88;;
59504;SDS011;45321;53.200;5.814;2022-08-16T12:12:06;11.32;;;8.05;;
59504;SDS011;45321;53.200;5.814;2022-08-16T12:14:33;12.18;;;8.15;;
59504;SDS011;45321;53.200;5.814;2022-08-16T12:16:59;11.07;;;9.48;;
59504;SDS011;45321;53.200;5.814;2022-08-16T12:19:27;10.77;;;8.30;;
59504;SDS011;45321;53.200;5.814;2022-08-16T12:21:53;9.15;;;8.25;;
59504;SDS011;45321;53.200;5.814;2022-08-16T12:24:19;13.98;;;10.88;;
59504;SDS011;45321;53.200;5.814;2022-08-16T12:26:46;10.90;;;8.98;;
59504;SDS011;45321;53.200;5.814;2022-08-16T12:29:12;11.90;;;8.98;;
59504;SDS011;45321;53.200;5.814;2022-08-16T12:31:39;10.63;;;9.25;;
59504;SDS011;45321;53.200;5.814;2022-08-16T12:34:06;8.63;;;7.70;;
59504;SDS011;45321;53.200;5.814;2022-08-16T12:36:33;11.27;;;7.00;;
59504;SDS011;45321;53.200;5.814;2022-08-16T12:39:00;12.25;;;8.27;;
59504;SDS011;45321;53.200;5.814;2022-08-16T12:41:30;8.95;;;6.75;;
59504;SDS011;45321;53.200;5.814;2022-08-16T12:43:57;7.88;;;7.07;;
59504;SDS011;45321;53.200;5.814;2022-08-16T12:46:24;10.43;;;7.07;;
59504;SDS011;45321;53.200;5.814;2022-08-16T12:48:50;7.03;;;6.10;;
59504;SDS011;45321;53.200;5.814;2022-08-16T12:51:25;10.75;;;8.32;;
59504;SDS011;45321;53.200;5.814;2022-08-16T12:53:56;8.25;;;6.32;;
59504;SDS011;45321;53.200;5.814;2022-08-16T12:56:28;8.48;;;6.88;;
59504;SDS011;45321;53.200;5.814;2022-08-16T12:58:57;7.20;;;6.20;;
59504;SDS011;45321;53.200;5.814;2022-08-16T13:01:26;7.05;;;6.40;;
59504;SDS011;45321;53.200;5.814;2022-08-16T13:03:54;6.70;;;5.13;;
59504;SDS011;45321;53.200;5.814;2022-08-16T13:06:22;8.35;;;5.70;;
59504;SDS011;45321;53.200;5.814;2022-08-16T13:08:50;5.28;;;4.68;;
59504;SDS011;45321;53.200;5.814;2022-08-16T13:11:17;8.00;;;5.63;;
59504;SDS011;45321;53.200;5.814;2022-08-16T13:13:48;5.65;;;4.78;;
59504;SDS011;45321;53.200;5.814;2022-08-16T13:16:14;8.88;;;5.20;;
59504;SDS011;45321;53.200;5.814;2022-08-16T13:18:40;10.30;;;7.18;;
59504;SDS011;45321;53.200;5.814;2022-08-16T13:21:06;7.93;;;6.38;;
59504;SDS011;45321;53.200;5.814;2022-08-16T13:23:33;6.80;;;6.20;;
59504;SDS011;45321;53.200;5.814;2022-08-16T13:26:00;6.70;;;6.00;;
59504;SDS011;45321;53.200;5.814;2022-08-16T13:28:26;7.78;;;7.13;;
59504;SDS011;45321;53.200;5.814;2022-08-16T13:30:52;6.07;;;5.07;;
59504;SDS011;45321;53.200;5.814;2022-08-16T13:33:20;6.13;;;5.30;;
59504;SDS011;45321;53.200;5.814;2022-08-16T13:35:54;5.10;;;4.15;;
59504;SDS011;45321;53.200;5.814;2022-08-16T13:38:24;6.60;;;5.82;;
59504;SDS011;45321;53.200;5.814;2022-08-16T13:40:50;6.20;;;5.60;;
59504;SDS011;45321;53.200;5.814;2022-08-16T13:43:17;8.50;;;5.63;;
59504;SDS011;45321;53.200;5.814;2022-08-16T13:45:45;5.45;;;4.95;;
59504;SDS011;45321;53.200;5.814;2022-08-16T13:48:11;7.43;;;5.07;;
59504;SDS011;45321;53.200;5.814;2022-08-16T13:50:37;7.65;;;6.53;;
59504;SDS011;45321;53.200;5.814;2022-08-16T13:53:02;5.13;;;4.63;;
59504;SDS011;45321;53.200;5.814;2022-08-16T13:55:28;4.95;;;3.95;;
59504;SDS011;45321;53.200;5.814;2022-08-16T13:57:54;8.93;;;4.30;;
59504;SDS011;45321;53.200;5.814;2022-08-16T14:00:20;6.68;;;4.30;;
59504;SDS011;45321;53.200;5.814;2022-08-16T14:02:47;5.88;;;5.13;;
59504;SDS011;45321;53.200;5.814;2022-08-16T14:05:13;5.10;;;4.57;;
59504;SDS011;45321;53.200;5.814;2022-08-16T14:07:39;5.82;;;4.50;;
59504;SDS011;45321;53.200;5.814;2022-08-16T14:10:06;4.68;;;4.38;;
59504;SDS011;45321;53.200;5.814;2022-08-16T14:12:34;6.18;;;5.28;;
59504;SDS011;45321;53.200;5.814;2022-08-16T14:15:00;7.88;;;4.95;;
59504;SDS011;45321;53.200;5.814;2022-08-16T14:17:28;5.18;;;4.68;;
59504;SDS011;45321;53.200;5.814;2022-08-16T14:19:54;5.97;;;4.38;;
59504;SDS011;45321;53.200;5.814;2022-08-16T14:22:22;5.32;;;4.82;;
59504;SDS011;45321;53.200;5.814;2022-08-16T14:24:58;6.15;;;5.43;;
59504;SDS011;45321;53.200;5.814;2022-08-16T14:27:26;6.05;;;5.28;;
59504;SDS011;45321;53.200;5.814;2022-08-16T14:29:53;5.25;;;4.50;;
59504;SDS011;45321;53.200;5.814;2022-08-16T14:32:21;6.97;;;4.93;;
59504;SDS011;45321;53.200;5.814;2022-08-16T14:34:49;5.05;;;4.57;;